Atlantic Island — C4VM2 — position and weather

sailwx.info

Track history (hours):
 
Tides and Currents Weather Stations Pressure Air Temp Water Temp Dewpoint Dewpoint Depression Visibility Wind Speed Wind Dir Waves Ship Positions

Atlantic Island

Last reported at 2016-Dec-29 12:32 UTC. Time now 2017-Jan-20 20:11 UTC.
Position N 35°58' W 005°33'.
Warning: this ship's position is 22 days out of date.

Length 95 m; draft 4.9 m.

Type: Cargo ship. MMSI: 210754000.

Date/timePositionNaut miles runAvg speedWind from/ knotsBaromVisibWave heightAir tempDewpointWater temp
2016-Dec-29 12:32N 35°58' W 005°33'9 9.1
2016-Dec-29 11:34N 35°59' W 005°22'5 5.3
2016-Dec-29 10:34N 35°54' W 005°19'0 0.0
2016-Dec-29 09:31N 35°54' W 005°19'0 0.0
2016-Dec-29 08:31N 35°54' W 005°19'0 0.0
2016-Dec-29 07:31N 35°54' W 005°19'0 0.0
2016-Dec-29 06:34N 35°54' W 005°19'0 0.0
2016-Dec-29 05:33N 35°54' W 005°19'0 0.1
2016-Dec-29 04:33N 35°54' W 005°19'4 4.4
2016-Dec-29 03:33N 35°56' W 005°14'29110.0
2016-Dec-27 22:17N 38°19' E 000°04'77 9.9
2016-Dec-27 14:31N 39°36' W 000°10'  
2016-Dec-23 12:24N 39°38' W 000°13'2 0.3
2016-Dec-23 05:25N 39°37' W 000°10'0 0.0
2016-Dec-23 02:12N 39°37' W 000°10'0 0.0
2016-Dec-22 03:12N 39°37' W 000°10'0 0.0
2016-Dec-21 05:29N 39°37' W 000°10'  
Track history (hours):
 
Tides and Currents Weather Stations Pressure Air Temp Water Temp Dewpoint Dewpoint Depression Visibility Wind Speed Wind Dir Waves Ship Positions

Atlantic Island

Last reported at 2016-Dec-29 12:32 UTC. Time now 2017-Jan-20 20:11 UTC.
Position N 35°58' W 005°33'.
Warning: this ship's position is 22 days out of date.

Length 95 m; draft 4.9 m.

Type: Cargo ship. MMSI: 210754000.

Date/timePositionNaut miles runAvg speedWind from/ knotsBaromVisibWave heightAir tempDewpointWater temp
2016-Dec-29 12:32N 35°58' W 005°33'9 9.1
2016-Dec-29 11:34N 35°59' W 005°22'5 5.3
2016-Dec-29 10:34N 35°54' W 005°19'0 0.0
2016-Dec-29 09:31N 35°54' W 005°19'0 0.0
2016-Dec-29 08:31N 35°54' W 005°19'0 0.0
2016-Dec-29 07:31N 35°54' W 005°19'0 0.0
2016-Dec-29 06:34N 35°54' W 005°19'0 0.0
2016-Dec-29 05:33N 35°54' W 005°19'0 0.1
2016-Dec-29 04:33N 35°54' W 005°19'4 4.4
2016-Dec-29 03:33N 35°56' W 005°14'29110.0
2016-Dec-27 22:17N 38°19' E 000°04'77 9.9
2016-Dec-27 14:31N 39°36' W 000°10'  
2016-Dec-23 12:24N 39°38' W 000°13'2 0.3
2016-Dec-23 05:25N 39°37' W 000°10'0 0.0
2016-Dec-23 02:12N 39°37' W 000°10'0 0.0
2016-Dec-22 03:12N 39°37' W 000°10'0 0.0
2016-Dec-21 05:29N 39°37' W 000°10'  

Dump ship's entire track history